Time;durP1;ratioP1;P1;durP2;ratioP2;P2;SDS_P1;SDS_P2;PMS_P1;PMS_P2;Temp;Humidity;BMP_temperature;BMP_pressure;BME280_temperature;BME280_humidity;BME280_pressure;Samples;Min_cycle;Max_cycle;Signal;HPM_P1;HPM_P2
2021/01/30 00:01:17;;;;;;;10.00;7.63;;;1.20;99.90;;;;;;12493883;28;21035;-41
2021/01/30 00:07:18;;;;;;;8.95;6.05;;;1.20;99.90;;;;;;12491698;28;20052;-41
2021/01/30 00:13:19;;;;;;;8.70;7.03;;;1.10;99.90;;;;;;12504872;28;20105;-42
2021/01/30 00:19:21;;;;;;;8.73;6.63;;;1.10;99.90;;;;;;12500709;28;20053;-41
2021/01/30 00:25:26;;;;;;;14.32;10.32;;;0.80;99.90;;;;;;12512588;28;20094;-41
2021/01/30 00:31:27;;;;;;;10.68;8.40;;;0.90;99.90;;;;;;12488871;28;20639;-41
2021/01/30 00:37:29;;;;;;;10.70;7.20;;;0.70;99.90;;;;;;12506622;28;20060;-40
2021/01/30 00:43:30;;;;;;;8.13;6.55;;;0.80;99.90;;;;;;12513225;28;20473;-42
2021/01/30 00:49:31;;;;;;;10.25;7.60;;;0.80;99.90;;;;;;12507442;28;20041;-41
2021/01/30 00:55:33;;;;;;;9.77;7.32;;;0.80;99.90;;;;;;12503043;28;20381;-41
2021/01/30 01:01:39;;;;;;;9.15;7.28;;;0.80;99.90;;;;;;12503209;28;20048;-41
2021/01/30 01:07:42;;;;;;;11.43;8.30;;;0.60;99.90;;;;;;12503508;28;20575;-41
2021/01/30 01:13:44;;;;;;;11.32;8.35;;;0.70;99.90;;;;;;12499325;28;20493;-41
2021/01/30 01:19:46;;;;;;;10.48;8.20;;;0.80;99.90;;;;;;12504264;28;20052;-41
2021/01/30 01:25:47;;;;;;;10.02;7.55;;;0.70;99.90;;;;;;12499920;28;21032;-41
2021/01/30 01:31:52;;;;;;;10.30;6.68;;;0.70;99.90;;;;;;12502908;28;20619;-41
2021/01/30 01:37:58;;;;;;;8.15;5.93;;;0.60;99.90;;;;;;12483552;28;20053;-41
2021/01/30 01:44:00;;;;;;;8.30;5.47;;;0.60;99.90;;;;;;12483784;28;20057;-41
2021/01/30 01:50:08;;;;;;;7.82;5.38;;;0.40;99.90;;;;;;12481604;28;20060;-41
2021/01/30 01:56:20;;;;;;;7.55;5.93;;;0.40;99.90;;;;;;12455858;28;20041;-41
2021/01/30 02:02:26;;;;;;;6.57;5.13;;;0.20;99.90;;;;;;12456168;28;20057;-41
2021/01/30 02:08:29;;;;;;;8.82;6.00;;;0.30;99.90;;;;;;12462986;28;20049;-41
2021/01/30 02:14:35;;;;;;;7.25;4.90;;;0.10;99.90;;;;;;12457607;28;20049;-41
2021/01/30 02:21:20;;;;;;;7.40;5.53;;;0.10;99.90;;;;;;12474731;28;20462;-41
2021/01/30 02:27:53;;;;;;;7.63;5.40;;;0.20;99.90;;;;;;12435383;28;20432;-42
2021/01/30 02:34:39;;;;;;;10.02;6.20;;;0.40;99.90;;;;;;12426661;28;20054;-41
2021/01/30 02:40:45;;;;;;;8.60;5.85;;;0.30;99.90;;;;;;12420298;28;20088;-41
2021/01/30 02:46:51;;;;;;;7.90;5.60;;;0.40;99.90;;;;;;12433218;28;20115;-43
2021/01/30 02:52:56;;;;;;;7.80;5.53;;;0.30;99.90;;;;;;12422651;28;20399;-41
2021/01/30 02:59:11;;;;;;;9.68;6.65;;;0.40;99.90;;;;;;12423845;28;20056;-42
2021/01/30 03:05:14;;;;;;;9.10;6.35;;;0.30;99.90;;;;;;12434498;28;20184;-41
2021/01/30 03:11:19;;;;;;;9.38;6.32;;;0.20;99.90;;;;;;12432644;28;20448;-41
2021/01/30 03:17:24;;;;;;;9.63;7.25;;;0.40;99.90;;;;;;12425357;28;20045;-42
2021/01/30 03:23:27;;;;;;;9.85;6.72;;;0.30;99.90;;;;;;12444859;28;20121;-41
2021/01/30 03:29:29;;;;;;;12.07;7.68;;;0.20;99.90;;;;;;12433855;28;20115;-41
2021/01/30 03:35:30;;;;;;;11.23;6.63;;;0.30;99.90;;;;;;12441761;28;20455;-41
2021/01/30 03:41:31;;;;;;;11.82;7.82;;;0.30;99.90;;;;;;12425689;28;20102;-41
2021/01/30 03:47:33;;;;;;;10.18;6.90;;;0.10;99.90;;;;;;12427003;28;20445;-41
2021/01/30 03:53:37;;;;;;;9.48;6.85;;;0.20;99.90;;;;;;12424744;28;20041;-41
2021/01/30 03:59:38;;;;;;;10.75;6.88;;;0.20;99.90;;;;;;12428059;28;20084;-41
2021/01/30 04:05:39;;;;;;;9.52;6.63;;;0.10;99.90;;;;;;12413326;28;20053;-41
2021/01/30 04:11:41;;;;;;;11.20;6.95;;;0.00;99.90;;;;;;12424381;28;20053;-41
2021/01/30 04:17:43;;;;;;;11.40;7.28;;;0.00;99.90;;;;;;12424924;28;20045;-41
2021/01/30 04:23:45;;;;;;;11.00;7.28;;;0.00;99.90;;;;;;12434766;28;20120;-41
2021/01/30 04:29:47;;;;;;;11.68;7.75;;;0.00;99.90;;;;;;12437484;28;20716;-42
2021/01/30 04:35:48;;;;;;;13.00;8.55;;;-0.10;99.90;;;;;;12429569;28;20114;-41
2021/01/30 04:42:03;;;;;;;12.20;8.60;;;-0.10;99.90;;;;;;12427600;28;20091;-42
2021/01/30 04:48:19;;;;;;;15.07;9.05;;;0.10;99.90;;;;;;12452404;28;20453;-41
2021/01/30 04:54:53;;;;;;;14.23;9.38;;;0.10;99.90;;;;;;12458357;28;20480;-41
2021/01/30 05:01:31;;;;;;;14.70;10.18;;;0.00;99.90;;;;;;12458553;28;20053;-41
2021/01/30 05:07:44;;;;;;;18.02;10.63;;;0.00;99.90;;;;;;12438214;28;20057;-41
2021/01/30 05:14:06;;;;;;;16.75;10.52;;;0.00;99.90;;;;;;12445880;28;20140;-41
2021/01/30 05:20:10;;;;;;;17.05;11.30;;;-0.10;99.90;;;;;;12452110;28;20473;-41
2021/01/30 05:26:59;;;;;;;19.53;12.50;;;-0.10;99.90;;;;;;12449818;28;20061;-41
2021/01/30 05:33:23;;;;;;;19.38;12.35;;;0.00;99.90;;;;;;12440308;28;20054;-42
2021/01/30 05:40:01;;;;;;;19.13;12.32;;;0.00;99.90;;;;;;12447763;28;20072;-41
2021/01/30 05:46:03;;;;;;;17.23;11.02;;;0.00;99.90;;;;;;12454489;28;20072;-41
2021/01/30 05:52:14;;;;;;;18.17;12.20;;;0.00;99.90;;;;;;12449484;28;20498;-41
2021/01/30 05:58:19;;;;;;;20.10;12.07;;;0.00;99.90;;;;;;12449137;28;20091;-42
2021/01/30 06:04:29;;;;;;;16.20;11.13;;;-0.10;99.90;;;;;;12448854;28;20137;-41
2021/01/30 06:10:31;;;;;;;19.10;11.88;;;-0.10;99.90;;;;;;12431578;28;20398;-42
2021/01/30 06:16:40;;;;;;;20.45;12.80;;;0.10;99.90;;;;;;12440734;28;20041;-41
2021/01/30 06:22:42;;;;;;;21.13;13.90;;;0.00;99.90;;;;;;12452400;28;20053;-41
2021/01/30 06:28:55;;;;;;;25.05;13.93;;;0.10;99.90;;;;;;12454189;28;20511;-41
2021/01/30 06:35:18;;;;;;;22.35;13.85;;;0.00;99.90;;;;;;12449399;28;20103;-42
2021/01/30 06:41:31;;;;;;;23.40;13.70;;;0.20;99.90;;;;;;12450033;28;20049;-41
2021/01/30 06:47:48;;;;;;;21.90;13.90;;;0.10;99.90;;;;;;12453544;28;20129;-41
2021/01/30 06:53:50;;;;;;;20.55;13.10;;;0.00;99.90;;;;;;12451970;28;20106;-41
2021/01/30 06:59:56;;;;;;;23.23;14.13;;;0.10;99.90;;;;;;12438119;28;20564;-41
2021/01/30 07:06:26;;;;;;;21.40;13.48;;;0.20;99.90;;;;;;12453483;28;20145;-41
2021/01/30 07:12:48;;;;;;;25.60;14.98;;;0.10;99.90;;;;;;12429142;28;20052;-42
2021/01/30 07:19:13;;;;;;;21.95;13.68;;;0.10;99.90;;;;;;12445867;28;20098;-42
2021/01/30 07:25:19;;;;;;;24.48;15.27;;;0.00;99.90;;;;;;12436032;28;20107;-42
2021/01/30 07:31:47;;;;;;;23.08;14.20;;;0.10;99.90;;;;;;12447680;28;20399;-41
2021/01/30 07:38:04;;;;;;;22.45;13.30;;;0.00;99.90;;;;;;12426641;28;20137;-41
2021/01/30 07:44:15;;;;;;;19.83;12.15;;;0.00;99.90;;;;;;12424878;28;20095;-41
2021/01/30 07:50:23;;;;;;;17.92;11.30;;;-0.10;99.90;;;;;;12440068;28;20053;-41
2021/01/30 07:57:01;;;;;;;19.20;11.88;;;-0.10;99.90;;;;;;12435449;28;20064;-41
2021/01/30 08:03:17;;;;;;;16.10;10.07;;;-0.10;99.90;;;;;;12433566;28;20077;-41
2021/01/30 08:09:29;;;;;;;16.95;10.13;;;-0.10;99.90;;;;;;12438280;28;20099;-41
2021/01/30 08:15:38;;;;;;;15.27;8.68;;;-0.10;99.90;;;;;;12418958;28;20140;-41
2021/01/30 08:21:50;;;;;;;14.50;8.93;;;-0.20;99.90;;;;;;12430216;28;20072;-41
2021/01/30 08:28:06;;;;;;;15.63;9.50;;;-0.10;99.90;;;;;;12447373;28;20053;-41
2021/01/30 08:34:24;;;;;;;14.73;9.68;;;0.00;99.90;;;;;;12451833;28;20604;-41
2021/01/30 08:40:52;;;;;;;15.15;9.85;;;0.20;99.90;;;;;;12438914;28;20072;-41
2021/01/30 08:47:25;;;;;;;15.15;9.88;;;0.20;99.90;;;;;;12454904;28;20046;-41
2021/01/30 08:53:30;;;;;;;16.48;10.02;;;0.00;99.90;;;;;;12425921;28;20467;-41
2021/01/30 08:59:45;;;;;;;14.65;9.50;;;0.10;99.90;;;;;;12444309;28;20123;-41
2021/01/30 09:05:46;;;;;;;15.88;9.98;;;0.20;99.90;;;;;;12460093;28;20136;-41
2021/01/30 09:11:49;;;;;;;16.48;9.80;;;0.40;99.90;;;;;;12427499;28;20491;-42
2021/01/30 09:17:51;;;;;;;15.93;9.77;;;0.70;99.90;;;;;;12449219;28;20118;-42
2021/01/30 09:24:21;;;;;;;15.20;9.88;;;0.90;99.90;;;;;;12441783;28;20429;-41
2021/01/30 09:30:57;;;;;;;13.02;9.02;;;1.20;99.90;;;;;;12454166;28;20052;-41
2021/01/30 09:36:59;;;;;;;14.45;9.55;;;1.10;99.90;;;;;;12426793;28;20068;-42
2021/01/30 09:43:04;;;;;;;14.00;9.75;;;1.30;99.90;;;;;;12438001;28;20143;-41
2021/01/30 09:49:09;;;;;;;14.60;10.30;;;1.40;99.90;;;;;;12448187;28;20045;-41
2021/01/30 09:55:12;;;;;;;13.98;9.15;;;1.20;99.90;;;;;;12431335;28;20049;-41
2021/01/30 10:01:19;;;;;;;14.45;8.95;;;1.40;99.90;;;;;;12445578;28;20080;-41
2021/01/30 10:07:28;;;;;;;13.35;8.93;;;1.00;99.90;;;;;;12452798;28;20053;-41
2021/01/30 10:13:31;;;;;;;13.40;8.70;;;1.00;99.90;;;;;;12440482;28;20053;-41
2021/01/30 10:19:35;;;;;;;12.73;8.98;;;1.10;99.90;;;;;;12449070;28;20068;-42
2021/01/30 10:25:37;;;;;;;16.20;10.95;;;1.00;99.90;;;;;;12436605;28;20143;-42
2021/01/30 10:31:55;;;;;;;15.73;9.80;;;1.20;99.90;;;;;;12453516;28;20597;-42
2021/01/30 10:38:10;;;;;;;15.60;10.15;;;1.30;99.90;;;;;;12438914;28;20053;-41
2021/01/30 10:44:27;;;;;;;16.98;10.23;;;1.30;99.90;;;;;;12450754;28;20492;-42
2021/01/30 10:50:49;;;;;;;13.68;9.63;;;1.40;99.90;;;;;;12434737;28;20389;-41
2021/01/30 10:57:20;;;;;;;14.57;8.85;;;1.20;99.90;;;;;;12436253;28;20057;-41
2021/01/30 11:03:25;;;;;;;17.90;11.10;;;1.20;99.90;;;;;;12406112;28;20080;-42
2021/01/30 11:09:34;;;;;;;18.58;11.57;;;1.40;99.90;;;;;;12425383;28;20042;-42
2021/01/30 11:15:41;;;;;;;17.17;11.02;;;1.20;99.90;;;;;;12439951;28;20073;-41
2021/01/30 11:21:42;;;;;;;16.80;10.77;;;1.30;99.90;;;;;;12445610;28;20554;-41
2021/01/30 11:27:45;;;;;;;17.05;11.73;;;1.70;99.90;;;;;;12432547;28;21133;-41
2021/01/30 11:33:51;;;;;;;15.50;9.32;;;1.90;99.90;;;;;;12455900;28;20421;-42
2021/01/30 11:39:52;;;;;;;17.08;11.43;;;2.00;99.90;;;;;;12424007;28;20098;-41
2021/01/30 11:45:54;;;;;;;18.00;12.13;;;2.20;99.90;;;;;;12440315;28;20783;-41
2021/01/30 11:51:56;;;;;;;17.30;10.95;;;1.90;99.90;;;;;;12439552;28;20056;-42
2021/01/30 11:57:57;;;;;;;15.57;10.07;;;1.80;99.90;;;;;;12429908;28;20062;-41
2021/01/30 12:03:59;;;;;;;14.57;10.18;;;1.70;99.90;;;;;;12443721;28;20144;-42
2021/01/30 12:10:00;;;;;;;15.32;10.60;;;1.70;99.90;;;;;;12431021;28;20087;-42
2021/01/30 12:16:01;;;;;;;14.95;10.40;;;1.90;99.90;;;;;;12440625;28;20085;-42
2021/01/30 12:22:03;;;;;;;14.07;9.52;;;2.00;99.90;;;;;;12448732;28;20128;-41
2021/01/30 12:28:07;;;;;;;16.25;10.35;;;1.80;99.90;;;;;;12453010;28;20148;-42
2021/01/30 12:34:08;;;;;;;15.02;8.52;;;1.70;99.90;;;;;;12437077;28;20058;-42
2021/01/30 12:40:10;;;;;;;15.02;10.40;;;1.70;99.90;;;;;;12458103;28;20428;-42
2021/01/30 12:46:12;;;;;;;15.50;10.40;;;1.40;99.90;;;;;;12439065;28;20099;-42
2021/01/30 12:52:14;;;;;;;14.65;9.68;;;1.20;99.90;;;;;;12462288;28;20482;-42
2021/01/30 12:58:25;;;;;;;15.70;8.80;;;1.20;99.90;;;;;;12433817;28;20057;-41
2021/01/30 13:04:27;;;;;;;16.77;10.63;;;1.10;99.90;;;;;;12467151;28;20475;-42
2021/01/30 13:10:28;;;;;;;16.25;10.80;;;1.30;99.90;;;;;;12434037;28;20049;-41
2021/01/30 13:16:31;;;;;;;14.95;10.07;;;1.50;99.90;;;;;;12440655;28;20402;-41
2021/01/30 13:22:34;;;;;;;14.45;9.95;;;1.50;99.90;;;;;;12432198;28;20041;-42
2021/01/30 13:28:35;;;;;;;14.85;10.07;;;1.60;99.90;;;;;;12448124;28;20049;-42
2021/01/30 13:34:37;;;;;;;14.38;9.52;;;1.70;99.90;;;;;;12430125;28;20050;-41
2021/01/30 13:40:38;;;;;;;12.38;9.13;;;1.80;99.90;;;;;;12419974;28;20034;-41
2021/01/30 13:46:41;;;;;;;13.68;9.18;;;1.70;99.90;;;;;;12433037;28;20072;-42
2021/01/30 13:52:43;;;;;;;14.30;9.50;;;1.60;99.90;;;;;;12452808;28;20102;-42
2021/01/30 13:58:44;;;;;;;12.65;8.55;;;1.90;99.90;;;;;;12447219;28;20110;-40
2021/01/30 14:04:45;;;;;;;10.32;6.78;;;1.90;99.90;;;;;;12455355;28;20124;-48
2021/01/30 14:10:47;;;;;;;12.57;7.65;;;2.00;99.90;;;;;;12442029;28;20045;-41
2021/01/30 14:16:49;;;;;;;10.55;6.85;;;1.90;99.90;;;;;;12458368;28;20491;-42
2021/01/30 14:22:51;;;;;;;13.85;8.40;;;1.90;99.90;;;;;;12439624;28;20053;-42
2021/01/30 14:28:53;;;;;;;9.65;6.50;;;2.10;99.90;;;;;;12450628;28;20057;-41
2021/01/30 14:34:55;;;;;;;10.77;6.30;;;1.90;99.90;;;;;;12449544;28;20073;-42
2021/01/30 14:40:56;;;;;;;10.95;7.20;;;1.40;99.90;;;;;;12446464;28;20122;-41
2021/01/30 14:46:58;;;;;;;10.82;6.60;;;1.20;99.90;;;;;;12443011;28;20057;-41
2021/01/30 14:52:59;;;;;;;10.15;6.63;;;1.10;99.90;;;;;;12441509;28;20068;-41
2021/01/30 14:59:01;;;;;;;13.75;7.53;;;1.00;99.90;;;;;;12454550;28;20050;-41
2021/01/30 15:05:06;;;;;;;11.98;7.32;;;1.10;99.90;;;;;;12449572;28;20057;-41
2021/01/30 15:11:08;;;;;;;11.00;7.15;;;0.90;99.90;;;;;;12439545;28;20059;-41
2021/01/30 15:17:10;;;;;;;11.15;7.28;;;0.90;99.90;;;;;;12451200;28;20049;-41
2021/01/30 15:23:12;;;;;;;13.93;7.35;;;0.80;99.90;;;;;;12426569;28;20049;-41
2021/01/30 15:29:13;;;;;;;11.18;6.75;;;0.80;99.90;;;;;;12455737;28;20053;-41
2021/01/30 15:35:16;;;;;;;9.30;6.20;;;0.70;99.90;;;;;;12451829;28;20132;-41
2021/01/30 15:41:17;;;;;;;7.40;5.00;;;0.70;99.90;;;;;;12441342;28;20037;-41
2021/01/30 15:47:18;;;;;;;7.78;4.72;;;0.60;99.90;;;;;;12443970;28;20515;-41
2021/01/30 15:53:20;;;;;;;6.70;4.63;;;0.60;99.90;;;;;;12434935;28;20092;-41
2021/01/30 15:59:21;;;;;;;7.10;3.65;;;0.50;99.90;;;;;;12442522;28;20091;-41
2021/01/30 16:05:23;;;;;;;5.95;3.72;;;0.40;99.90;;;;;;12450440;28;20742;-41
2021/01/30 16:11:27;;;;;;;5.90;3.67;;;0.30;99.90;;;;;;12449785;28;20140;-41
2021/01/30 16:17:29;;;;;;;5.00;3.60;;;0.30;99.90;;;;;;12437207;28;20489;-41
2021/01/30 16:23:31;;;;;;;6.00;3.83;;;0.30;99.90;;;;;;12437657;28;20053;-41
2021/01/30 16:29:35;;;;;;;8.13;4.40;;;0.30;99.90;;;;;;12438209;28;20080;-41
2021/01/30 16:35:37;;;;;;;6.25;3.85;;;0.30;99.90;;;;;;12448032;28;20132;-41
2021/01/30 16:41:38;;;;;;;6.15;4.35;;;0.20;99.90;;;;;;12437324;28;20136;-41
2021/01/30 16:47:39;;;;;;;7.95;4.03;;;0.20;99.90;;;;;;12438012;28;20053;-41
2021/01/30 16:53:41;;;;;;;6.65;4.20;;;0.20;99.90;;;;;;12449449;28;20307;-41
2021/01/30 16:59:42;;;;;;;7.88;4.88;;;0.20;99.90;;;;;;12463784;28;20041;-41
2021/01/30 17:05:46;;;;;;;7.55;4.50;;;0.20;99.90;;;;;;12461049;28;20449;-41
2021/01/30 17:11:52;;;;;;;7.75;4.72;;;0.10;99.90;;;;;;12430560;28;20719;-41
2021/01/30 17:17:53;;;;;;;7.85;4.97;;;0.20;99.90;;;;;;12444529;28;20057;-41
2021/01/30 17:23:55;;;;;;;9.20;5.75;;;0.20;99.90;;;;;;12424910;28;20051;-41
2021/01/30 17:29:56;;;;;;;7.82;4.55;;;0.20;99.90;;;;;;12441934;28;20061;-41
2021/01/30 17:35:58;;;;;;;8.35;5.15;;;0.10;99.90;;;;;;12454363;28;20053;-41
2021/01/30 17:41:59;;;;;;;8.60;4.85;;;0.10;99.90;;;;;;12442505;28;20157;-41
2021/01/30 17:48:02;;;;;;;8.40;5.50;;;0.10;99.90;;;;;;12455590;28;20053;-41
2021/01/30 17:54:04;;;;;;;8.55;5.45;;;0.10;99.90;;;;;;12441552;28;20045;-41
2021/01/30 18:00:09;;;;;;;7.03;4.50;;;0.10;99.90;;;;;;12439619;28;20053;-41
2021/01/30 18:06:10;;;;;;;5.65;4.18;;;0.10;99.90;;;;;;12457530;28;20517;-41
2021/01/30 18:12:12;;;;;;;6.13;4.00;;;0.00;99.90;;;;;;12430514;28;20054;-41
2021/01/30 18:18:14;;;;;;;6.78;4.10;;;-0.10;99.90;;;;;;12443211;28;20065;-41
2021/01/30 18:24:17;;;;;;;8.07;4.55;;;-0.20;99.90;;;;;;12419127;28;20062;-41
2021/01/30 18:30:20;;;;;;;7.43;4.15;;;-0.30;99.90;;;;;;12446693;28;20049;-41
2021/01/30 18:36:21;;;;;;;6.28;4.13;;;-0.30;99.90;;;;;;12450079;28;20432;-41
2021/01/30 18:42:23;;;;;;;6.30;4.13;;;-0.40;99.90;;;;;;12435984;28;20034;-41
2021/01/30 18:48:24;;;;;;;8.25;4.45;;;-0.50;99.90;;;;;;12438821;28;20049;-41
2021/01/30 18:54:26;;;;;;;8.13;5.43;;;-0.50;99.90;;;;;;12428307;28;20045;-41
2021/01/30 19:00:30;;;;;;;13.25;8.27;;;-0.60;99.90;;;;;;12440855;28;20057;-41
2021/01/30 19:06:33;;;;;;;14.68;9.65;;;-0.70;99.90;;;;;;12436944;28;20132;-41
2021/01/30 19:12:34;;;;;;;17.10;10.23;;;-0.80;99.90;;;;;;12434395;28;20140;-41
2021/01/30 19:18:36;;;;;;;17.52;11.00;;;-0.80;99.90;;;;;;12438074;28;20094;-41
2021/01/30 19:24:38;;;;;;;19.10;11.57;;;-0.80;99.90;;;;;;12427365;28;20050;-41
2021/01/30 19:30:39;;;;;;;19.48;12.45;;;-0.90;99.90;;;;;;12432239;28;20061;-41
2021/01/30 19:36:41;;;;;;;21.52;12.45;;;-0.90;99.90;;;;;;12430723;28;20057;-41
2021/01/30 19:42:42;;;;;;;21.40;13.00;;;-1.00;99.90;;;;;;12431301;28;20052;-41
2021/01/30 19:48:44;;;;;;;22.98;13.60;;;-1.00;99.90;;;;;;12435422;28;20037;-42
2021/01/30 19:54:46;;;;;;;23.52;13.05;;;-1.10;99.90;;;;;;12434976;28;20501;-41
2021/01/30 20:00:49;;;;;;;25.80;14.40;;;-1.10;99.90;;;;;;12431218;28;20065;-41
2021/01/30 20:06:50;;;;;;;25.83;14.25;;;-1.10;99.90;;;;;;12427061;28;20567;-41
2021/01/30 20:12:52;;;;;;;25.60;15.20;;;-1.10;99.90;;;;;;12434434;28;20054;-41
2021/01/30 20:18:53;;;;;;;25.92;13.95;;;-1.10;99.90;;;;;;12414518;28;20065;-41
2021/01/30 20:24:55;;;;;;;25.48;14.65;;;-1.30;99.90;;;;;;12439053;28;20041;-41
2021/01/30 20:30:56;;;;;;;26.75;15.13;;;-1.40;99.90;;;;;;12438597;28;20057;-41
2021/01/30 20:36:58;;;;;;;29.23;15.23;;;-1.50;99.90;;;;;;12454338;28;20165;-41
2021/01/30 20:43:00;;;;;;;32.20;15.73;;;-1.60;99.90;;;;;;12445291;28;20132;-41
2021/01/30 20:49:01;;;;;;;31.55;16.58;;;-1.60;99.90;;;;;;12446228;28;20680;-41
2021/01/30 20:55:03;;;;;;;49.13;16.15;;;-1.60;99.90;;;;;;12457100;28;20045;-41
2021/01/30 21:01:04;;;;;;;24.80;14.13;;;-1.60;99.90;;;;;;12445860;28;20099;-41
2021/01/30 21:07:06;;;;;;;27.08;14.10;;;-1.60;99.90;;;;;;12452765;28;20049;-41
2021/01/30 21:13:07;;;;;;;25.50;13.85;;;-1.70;99.90;;;;;;12453520;28;20654;-41
2021/01/30 21:19:10;;;;;;;23.00;13.77;;;-1.70;99.90;;;;;;12445205;28;20152;-41
2021/01/30 21:25:13;;;;;;;22.00;12.73;;;-1.70;99.90;;;;;;12437104;28;20041;-41
2021/01/30 21:31:23;;;;;;;22.58;13.18;;;-1.80;99.90;;;;;;12456279;28;20057;-41
2021/01/30 21:37:24;;;;;;;26.50;14.45;;;-1.80;99.90;;;;;;12445354;28;20053;-41
2021/01/30 21:43:26;;;;;;;25.98;14.50;;;-1.80;99.90;;;;;;12454529;28;20444;-41
2021/01/30 21:49:27;;;;;;;23.52;14.40;;;-1.80;99.90;;;;;;12453515;28;20045;-41
2021/01/30 21:55:28;;;;;;;22.88;13.05;;;-1.80;99.90;;;;;;12448067;28;20098;-42
2021/01/30 22:01:30;;;;;;;24.40;14.73;;;-1.80;99.90;;;;;;12452491;28;20049;-41
2021/01/30 22:07:32;;;;;;;27.67;15.05;;;-1.90;99.90;;;;;;12449330;28;20164;-41
2021/01/30 22:13:33;;;;;;;25.27;13.75;;;-1.90;99.90;;;;;;12445853;28;20436;-41
2021/01/30 22:19:34;;;;;;;28.77;15.80;;;-1.90;99.90;;;;;;12456123;28;20057;-41
2021/01/30 22:25:36;;;;;;;27.25;14.65;;;-2.00;99.90;;;;;;12438877;28;20498;-41
2021/01/30 22:31:37;;;;;;;27.05;14.60;;;-1.90;99.90;;;;;;12447943;28;20060;-41
2021/01/30 22:37:39;;;;;;;25.02;14.38;;;-2.00;99.90;;;;;;12455668;28;20093;-41
2021/01/30 22:43:40;;;;;;;28.15;14.65;;;-2.00;99.90;;;;;;12438532;28;20088;-41
2021/01/30 22:49:42;;;;;;;22.80;13.82;;;-2.10;99.90;;;;;;12443431;28;20091;-40
2021/01/30 22:55:43;;;;;;;24.33;14.00;;;-2.10;99.90;;;;;;12443594;28;20099;-41
2021/01/30 23:01:45;;;;;;;24.20;13.60;;;-2.10;99.90;;;;;;12450181;28;20049;-41
2021/01/30 23:07:46;;;;;;;24.85;13.25;;;-2.10;99.90;;;;;;12444619;28;20052;-41
2021/01/30 23:13:49;;;;;;;24.38;13.55;;;-2.10;99.90;;;;;;12441966;28;20049;-41
2021/01/30 23:19:50;;;;;;;23.55;13.30;;;-2.20;99.90;;;;;;12436936;28;20145;-41
2021/01/30 23:25:51;;;;;;;21.75;13.85;;;-2.20;99.90;;;;;;12453022;28;20049;-41
2021/01/30 23:31:53;;;;;;;21.45;13.20;;;-2.30;99.90;;;;;;12440699;28;20049;-41
2021/01/30 23:37:54;;;;;;;24.58;13.43;;;-2.20;99.90;;;;;;12442125;28;20103;-41
2021/01/30 23:43:56;;;;;;;21.40;12.35;;;-2.20;99.90;;;;;;12450611;28;20057;-41
2021/01/30 23:49:57;;;;;;;19.40;11.35;;;-2.20;99.90;;;;;;12449023;28;20122;-41
2021/01/30 23:55:58;;;;;;;26.13;14.18;;;-2.30;99.90;;;;;;12459556;28;20053;-41
